createdAt,value
2019-06-07T00:01:09.641Z,94
2019-06-07T00:06:42.184Z,94
2019-06-07T00:12:16.893Z,94
2019-06-07T00:17:47.469Z,95
2019-06-07T00:23:22.555Z,95
2019-06-07T00:28:52.593Z,96
2019-06-07T00:34:25.239Z,95
2019-06-07T00:40:13.187Z,95
2019-06-07T00:45:30.383Z,96
2019-06-07T00:51:02.997Z,96
2019-06-07T00:56:35.609Z,97
2019-06-07T01:02:08.229Z,98
2019-06-07T01:07:40.813Z,98
2019-06-07T01:13:15.031Z,98
2019-06-07T01:18:47.370Z,97
2019-06-07T01:24:20.015Z,97
2019-06-07T01:29:51.164Z,98
2019-06-07T01:35:25.421Z,98
2019-06-07T01:40:56.220Z,99
2019-06-07T01:46:28.811Z,99
2019-06-07T01:52:01.258Z,99
2019-06-07T01:57:45.271Z,100
2019-06-07T02:03:06.409Z,100
2019-06-07T02:08:38.916Z,100
2019-06-07T02:14:11.434Z,100
2019-06-07T02:19:43.881Z,100
2019-06-07T02:25:35.596Z,100
2019-06-07T02:30:59.351Z,100
2019-06-07T02:36:25.380Z,100
2019-06-07T02:41:53.913Z,100
2019-06-07T02:47:28.603Z,100
2019-06-07T02:52:58.906Z,100
2019-06-07T02:58:37.791Z,100
2019-06-07T03:04:03.851Z,100
2019-06-07T03:09:37.056Z,100
2019-06-07T03:15:08.851Z,100
2019-06-07T03:20:41.243Z,100
2019-06-07T03:26:13.743Z,100
2019-06-07T03:31:47.824Z,100
2019-06-07T03:37:18.734Z,100
2019-06-07T03:42:51.121Z,100
2019-06-07T03:48:23.635Z,100
2019-06-07T03:53:56.177Z,99
2019-06-07T03:59:31.238Z,99
2019-06-07T04:05:01.238Z,100
2019-06-07T04:10:53.021Z,100
2019-06-07T04:16:06.484Z,100
2019-06-07T04:21:42.448Z,100
2019-06-07T04:27:11.753Z,100
2019-06-07T04:32:45.093Z,100
2019-06-07T04:38:17.137Z,100
2019-06-07T04:43:49.680Z,100
2019-06-07T04:49:22.364Z,100
2019-06-07T04:54:55.050Z,99
2019-06-07T05:00:49.531Z,99
2019-06-07T05:06:00.549Z,98
2019-06-07T05:11:33.849Z,98
2019-06-07T05:17:06.066Z,98
2019-06-07T05:22:44.303Z,96
2019-06-07T05:28:12.425Z,95
2019-06-07T05:33:45.665Z,95
2019-06-07T05:39:19.304Z,95
2019-06-07T05:44:53.063Z,95
2019-06-07T05:50:44.647Z,95
2019-06-07T05:56:00.597Z,96
2019-06-07T06:01:43.487Z,95
2019-06-07T06:07:08.222Z,96
2019-06-07T06:12:45.936Z,95
2019-06-07T06:18:15.743Z,96
2019-06-07T06:23:51.569Z,95
2019-06-07T06:29:23.588Z,96
2019-06-07T06:34:57.304Z,95
2019-06-07T06:40:31.098Z,96
2019-06-07T06:46:05.129Z,95
2019-06-07T06:51:39.246Z,95
2019-06-07T06:57:19.372Z,95
2019-06-07T07:03:35.952Z,94
2019-06-07T07:08:20.397Z,94
2019-06-07T07:13:56.836Z,93
2019-06-07T07:19:28.089Z,93
2019-06-07T07:25:02.042Z,95
2019-06-07T07:30:37.246Z,94
2019-06-07T07:36:23.015Z,94
2019-06-07T07:42:00.778Z,92
2019-06-07T07:47:17.581Z,93
2019-06-07T07:52:55.816Z,94
2019-06-07T07:58:25.601Z,91
2019-06-07T08:03:59.601Z,92
2019-06-07T08:09:33.641Z,92
2019-06-07T08:15:07.642Z,93
2019-06-07T08:21:01.295Z,92
2019-06-07T08:26:15.942Z,92
2019-06-07T08:31:51.436Z,91
2019-06-07T08:38:07.729Z,91
2019-06-07T08:43:11.690Z,91
2019-06-07T08:48:32.489Z,90
2019-06-07T08:54:21.447Z,91
2019-06-07T08:59:41.115Z,91
2019-06-07T09:05:15.211Z,90
2019-06-07T09:10:49.588Z,91
2019-06-07T09:16:24.119Z,91
2019-06-07T09:22:03.067Z,91
2019-06-07T09:27:32.957Z,90
2019-06-07T09:33:08.936Z,89
2019-06-07T09:38:41.904Z,89
2019-06-07T09:44:24.500Z,88
2019-06-07T09:49:50.903Z,86
2019-06-07T09:55:25.749Z,87
2019-06-07T10:01:05.779Z,86
2019-06-07T10:06:35.482Z,86
2019-06-07T10:12:10.629Z,85
2019-06-07T10:17:46.066Z,87
2019-06-07T10:23:21.422Z,84
2019-06-07T10:29:01.850Z,89
2019-06-07T10:34:36.297Z,85
2019-06-07T10:40:11.620Z,83
2019-06-07T10:45:46.959Z,79
2019-06-07T10:51:22.430Z,83
2019-06-07T10:56:57.740Z,84
2019-06-07T11:02:33.158Z,83
2019-06-07T11:08:10.055Z,82
2019-06-07T11:13:43.318Z,81
2019-06-07T11:19:19.693Z,78
2019-06-07T11:24:52.733Z,80
2019-06-07T11:30:27.599Z,75
2019-06-07T11:36:02.724Z,76
2019-06-07T11:41:38.379Z,74
2019-06-07T11:47:14.503Z,71
2019-06-07T11:52:49.334Z,72
2019-06-07T11:58:24.767Z,72
2019-06-07T12:03:59.838Z,66
2019-06-07T12:09:35.599Z,70
2019-06-07T12:15:12.913Z,68
2019-06-07T12:20:48.086Z,68
2019-06-07T12:26:24.389Z,68
2019-06-07T12:32:00.017Z,70
2019-06-07T12:37:43.522Z,70
2019-06-07T12:43:12.686Z,68
2019-06-07T12:48:48.930Z,69
2019-06-07T12:54:25.381Z,68
2019-06-07T13:00:01.772Z,67
2019-06-07T13:05:37.977Z,64
2019-06-07T13:11:20.115Z,66
2019-06-07T13:16:49.776Z,67
2019-06-07T13:22:25.617Z,66
2019-06-07T13:28:01.168Z,66
2019-06-07T13:33:38.735Z,69
2019-06-07T13:39:12.268Z,67
2019-06-07T13:44:47.862Z,68
2019-06-07T13:50:24.040Z,67
2019-06-07T13:55:58.856Z,67
2019-06-07T14:01:34.206Z,69
2019-06-07T14:07:09.590Z,68
2019-06-07T14:12:44.828Z,65
2019-06-07T14:18:20.341Z,60
2019-06-07T14:23:54.727Z,60
2019-06-07T14:29:30.179Z,67
2019-06-07T14:35:05.248Z,60
2019-06-07T14:40:40.301Z,61
2019-06-07T14:46:14.809Z,64
2019-06-07T14:51:49.387Z,65
2019-06-07T14:57:25.095Z,64
2019-06-07T15:02:58.271Z,63
2019-06-07T15:08:33.094Z,59
2019-06-07T15:14:07.149Z,65
2019-06-07T15:19:41.557Z,62
2019-06-07T15:25:15.975Z,62
2019-06-07T15:30:50.942Z,58
2019-06-07T15:36:26.193Z,58
2019-06-07T15:42:01.511Z,59
2019-06-07T15:47:38.284Z,60
2019-06-07T15:53:12.215Z,60
2019-06-07T15:58:47.734Z,61
2019-06-07T16:04:23.249Z,61
2019-06-07T16:09:58.667Z,63
2019-06-07T16:15:34.724Z,63
2019-06-07T16:21:08.920Z,64
2019-06-07T16:26:44.547Z,63
2019-06-07T16:32:18.692Z,63
2019-06-07T16:37:53.561Z,62
2019-06-07T16:43:28.286Z,62
2019-06-07T16:49:02.954Z,62
2019-06-07T16:54:37.607Z,62
2019-06-07T17:00:12.098Z,63
2019-06-07T17:05:49.908Z,63
2019-06-07T17:11:21.240Z,62
2019-06-07T17:16:55.780Z,62
2019-06-07T17:22:30.235Z,62
2019-06-07T17:28:04.691Z,62
2019-06-07T17:33:39.779Z,63
2019-06-07T17:39:13.662Z,63
2019-06-07T17:44:52.547Z,63
2019-06-07T17:50:26.970Z,63
2019-06-07T17:56:01.386Z,63
2019-06-07T18:01:41.283Z,63
2019-06-07T18:07:09.920Z,62
2019-06-07T18:12:43.970Z,62
2019-06-07T18:18:17.244Z,61
2019-06-07T18:23:52.834Z,60
2019-06-07T18:29:25.500Z,60
2019-06-07T18:35:00.392Z,59
2019-06-07T18:40:34.248Z,60
2019-06-07T18:46:07.952Z,61
2019-06-07T18:51:42.263Z,60
2019-06-07T18:57:16.506Z,60
2019-06-07T19:02:51.839Z,62
2019-06-07T19:08:24.888Z,62
2019-06-07T19:13:59.313Z,62
2019-06-07T19:19:33.082Z,60
2019-06-07T19:25:06.798Z,63
2019-06-07T19:30:41.066Z,65
2019-06-07T19:36:15.315Z,66
2019-06-07T19:41:49.581Z,67
2019-06-07T19:47:23.679Z,70
2019-06-07T19:52:59.067Z,68
2019-06-07T19:58:31.784Z,71
2019-06-07T20:04:05.728Z,74
2019-06-07T20:09:39.173Z,72
2019-06-07T20:15:27.628Z,73
2019-06-07T20:20:47.097Z,69
2019-06-07T20:26:21.092Z,68
2019-06-07T20:31:54.721Z,66
2019-06-07T20:37:33.361Z,64
2019-06-07T20:43:08.203Z,59
2019-06-07T20:48:41.604Z,59
2019-06-07T20:54:15.714Z,60
2019-06-07T20:59:49.975Z,59
2019-06-07T21:05:24.089Z,59
2019-06-07T21:10:59.841Z,60
2019-06-07T21:16:32.474Z,60
2019-06-07T21:22:06.884Z,60
2019-06-07T21:27:40.645Z,61
2019-06-07T21:33:14.802Z,62
2019-06-07T21:38:48.956Z,62
2019-06-07T21:44:23.187Z,60
2019-06-07T21:49:57.184Z,61
2019-06-07T21:55:31.392Z,61
2019-06-07T22:01:06.668Z,62
2019-06-07T22:06:39.710Z,62
2019-06-07T22:12:14.325Z,61
2019-06-07T22:17:47.996Z,61
2019-06-07T22:23:22.141Z,62
2019-06-07T22:28:56.270Z,63
2019-06-07T22:34:30.410Z,64
2019-06-07T22:40:04.560Z,65
2019-06-07T22:45:38.601Z,63
2019-06-07T22:51:14.412Z,62
2019-06-07T22:56:46.873Z,62
2019-06-07T23:02:20.934Z,62
2019-06-07T23:07:54.665Z,62
2019-06-07T23:13:28.473Z,62
2019-06-07T23:19:02.635Z,62
2019-06-07T23:24:36.658Z,62
2019-06-07T23:30:10.815Z,63
2019-06-07T23:35:44.931Z,65
2019-06-07T23:41:20.377Z,65
2019-06-07T23:46:53.165Z,69
2019-06-07T23:52:27.126Z,72
2019-06-07T23:58:01.147Z,74
